sensor_id;sensor_type;location;lat;lon;timestamp;temperature;humidity
17918;DHT22;9084;50.956;3.106;2023-06-14T00:01:11;20.60;95.20
17918;DHT22;9084;50.956;3.106;2023-06-14T00:03:38;20.60;95.60
17918;DHT22;9084;50.956;3.106;2023-06-14T00:06:04;20.60;95.10
17918;DHT22;9084;50.956;3.106;2023-06-14T00:08:32;20.50;95.40
17918;DHT22;9084;50.956;3.106;2023-06-14T00:10:58;20.50;96.20
17918;DHT22;9084;50.956;3.106;2023-06-14T00:13:26;20.40;96.50
17918;DHT22;9084;50.956;3.106;2023-06-14T00:15:52;20.40;97.10
17918;DHT22;9084;50.956;3.106;2023-06-14T00:18:21;20.40;97.10
17918;DHT22;9084;50.956;3.106;2023-06-14T00:20:50;20.30;97.40
17918;DHT22;9084;50.956;3.106;2023-06-14T00:23:16;20.30;98.10
17918;DHT22;9084;50.956;3.106;2023-06-14T00:25:44;20.20;98.60
17918;DHT22;9084;50.956;3.106;2023-06-14T00:28:10;20.20;98.60
17918;DHT22;9084;50.956;3.106;2023-06-14T00:30:38;20.10;99.40
17918;DHT22;9084;50.956;3.106;2023-06-14T00:33:04;20.10;99.70
17918;DHT22;9084;50.956;3.106;2023-06-14T00:35:29;20.10;99.70
17918;DHT22;9084;50.956;3.106;2023-06-14T00:37:57;20.10;99.90
17918;DHT22;9084;50.956;3.106;2023-06-14T00:40:24;20.10;99.90
17918;DHT22;9084;50.956;3.106;2023-06-14T00:42:49;20.00;99.90
17918;DHT22;9084;50.956;3.106;2023-06-14T00:45:15;20.00;99.90
17918;DHT22;9084;50.956;3.106;2023-06-14T00:47:46;20.00;99.90
17918;DHT22;9084;50.956;3.106;2023-06-14T00:50:15;19.90;99.90
17918;DHT22;9084;50.956;3.106;2023-06-14T00:52:44;19.90;99.90
17918;DHT22;9084;50.956;3.106;2023-06-14T00:55:09;19.90;99.90
17918;DHT22;9084;50.956;3.106;2023-06-14T00:57:35;19.80;99.90
17918;DHT22;9084;50.956;3.106;2023-06-14T01:00:03;19.80;99.90
17918;DHT22;9084;50.956;3.106;2023-06-14T01:02:30;19.70;99.90
17918;DHT22;9084;50.956;3.106;2023-06-14T01:04:58;19.70;99.90
17918;DHT22;9084;50.956;3.106;2023-06-14T01:12:55;19.60;99.90
17918;DHT22;9084;50.956;3.106;2023-06-14T01:15:25;19.60;99.90
17918;DHT22;9084;50.956;3.106;2023-06-14T01:17:53;19.60;99.90
17918;DHT22;9084;50.956;3.106;2023-06-14T01:20:22;19.50;99.90
17918;DHT22;9084;50.956;3.106;2023-06-14T01:22:51;19.50;99.90
17918;DHT22;9084;50.956;3.106;2023-06-14T01:25:18;19.50;99.90
17918;DHT22;9084;50.956;3.106;2023-06-14T01:27:53;19.50;99.90
17918;DHT22;9084;50.956;3.106;2023-06-14T01:30:21;19.40;99.90
17918;DHT22;9084;50.956;3.106;2023-06-14T01:32:49;19.40;99.90
17918;DHT22;9084;50.956;3.106;2023-06-14T01:35:18;19.30;99.90
17918;DHT22;9084;50.956;3.106;2023-06-14T01:37:47;19.30;99.90
17918;DHT22;9084;50.956;3.106;2023-06-14T01:40:18;19.30;99.90
17918;DHT22;9084;50.956;3.106;2023-06-14T01:42:46;19.30;99.90
17918;DHT22;9084;50.956;3.106;2023-06-14T01:45:14;19.20;99.90
17918;DHT22;9084;50.956;3.106;2023-06-14T01:47:40;19.20;99.90
17918;DHT22;9084;50.956;3.106;2023-06-14T01:50:09;19.20;99.90
17918;DHT22;9084;50.956;3.106;2023-06-14T01:52:37;19.10;99.90
17918;DHT22;9084;50.956;3.106;2023-06-14T01:55:09;19.10;99.90
17918;DHT22;9084;50.956;3.106;2023-06-14T01:57:35;19.00;99.90
17918;DHT22;9084;50.956;3.106;2023-06-14T02:00:02;19.00;99.90
17918;DHT22;9084;50.956;3.106;2023-06-14T02:02:29;19.00;99.90
17918;DHT22;9084;50.956;3.106;2023-06-14T02:04:55;19.00;99.90
17918;DHT22;9084;50.956;3.106;2023-06-14T02:07:27;19.00;99.90
17918;DHT22;9084;50.956;3.106;2023-06-14T02:09:53;18.90;99.90
17918;DHT22;9084;50.956;3.106;2023-06-14T02:12:18;18.90;99.90
17918;DHT22;9084;50.956;3.106;2023-06-14T02:14:44;18.90;99.90
17918;DHT22;9084;50.956;3.106;2023-06-14T02:17:12;18.90;99.90
17918;DHT22;9084;50.956;3.106;2023-06-14T02:19:37;18.80;99.90
17918;DHT22;9084;50.956;3.106;2023-06-14T02:22:03;18.80;99.90
17918;DHT22;9084;50.956;3.106;2023-06-14T02:24:29;18.80;99.90
17918;DHT22;9084;50.956;3.106;2023-06-14T02:26:55;18.70;99.90
17918;DHT22;9084;50.956;3.106;2023-06-14T02:29:20;18.70;99.90
17918;DHT22;9084;50.956;3.106;2023-06-14T02:31:49;18.70;99.90
17918;DHT22;9084;50.956;3.106;2023-06-14T02:34:15;18.60;99.90
17918;DHT22;9084;50.956;3.106;2023-06-14T02:36:43;18.60;99.90
17918;DHT22;9084;50.956;3.106;2023-06-14T02:39:13;18.50;99.90
17918;DHT22;9084;50.956;3.106;2023-06-14T02:41:39;18.50;99.90
17918;DHT22;9084;50.956;3.106;2023-06-14T02:44:05;18.50;99.90
17918;DHT22;9084;50.956;3.106;2023-06-14T02:46:31;18.50;99.90
17918;DHT22;9084;50.956;3.106;2023-06-14T02:48:57;18.50;99.90
17918;DHT22;9084;50.956;3.106;2023-06-14T02:51:25;18.50;99.90
17918;DHT22;9084;50.956;3.106;2023-06-14T02:53:51;18.50;99.90
17918;DHT22;9084;50.956;3.106;2023-06-14T02:56:16;18.40;99.90
17918;DHT22;9084;50.956;3.106;2023-06-14T02:58:45;18.50;99.90
17918;DHT22;9084;50.956;3.106;2023-06-14T03:01:14;18.50;99.90
17918;DHT22;9084;50.956;3.106;2023-06-14T03:03:40;18.40;99.90
17918;DHT22;9084;50.956;3.106;2023-06-14T03:06:08;18.40;99.90
17918;DHT22;9084;50.956;3.106;2023-06-14T03:08:40;18.50;99.90
17918;DHT22;9084;50.956;3.106;2023-06-14T03:11:07;18.50;99.90
17918;DHT22;9084;50.956;3.106;2023-06-14T03:13:35;18.50;99.90
17918;DHT22;9084;50.956;3.106;2023-06-14T03:16:01;18.40;99.90
17918;DHT22;9084;50.956;3.106;2023-06-14T03:18:30;18.40;99.90
17918;DHT22;9084;50.956;3.106;2023-06-14T03:21:03;18.40;99.90
17918;DHT22;9084;50.956;3.106;2023-06-14T03:23:31;18.40;99.90
17918;DHT22;9084;50.956;3.106;2023-06-14T03:25:57;18.30;99.90
17918;DHT22;9084;50.956;3.106;2023-06-14T03:28:27;18.40;99.90
17918;DHT22;9084;50.956;3.106;2023-06-14T03:30:55;18.30;99.90
17918;DHT22;9084;50.956;3.106;2023-06-14T03:33:21;18.30;99.90
17918;DHT22;9084;50.956;3.106;2023-06-14T03:35:46;18.30;99.90
17918;DHT22;9084;50.956;3.106;2023-06-14T03:38:12;18.30;99.90
17918;DHT22;9084;50.956;3.106;2023-06-14T03:40:40;18.30;99.90
17918;DHT22;9084;50.956;3.106;2023-06-14T03:43:06;18.30;99.90
17918;DHT22;9084;50.956;3.106;2023-06-14T03:45:31;18.30;99.90
17918;DHT22;9084;50.956;3.106;2023-06-14T03:47:57;18.20;99.90
17918;DHT22;9084;50.956;3.106;2023-06-14T03:50:26;18.20;99.90
17918;DHT22;9084;50.956;3.106;2023-06-14T03:52:52;18.20;99.90
17918;DHT22;9084;50.956;3.106;2023-06-14T03:55:18;18.20;99.90
17918;DHT22;9084;50.956;3.106;2023-06-14T03:57:44;18.30;99.90
17918;DHT22;9084;50.956;3.106;2023-06-14T04:00:10;18.20;99.90
17918;DHT22;9084;50.956;3.106;2023-06-14T04:02:38;18.30;99.90
17918;DHT22;9084;50.956;3.106;2023-06-14T04:05:04;18.20;99.90
17918;DHT22;9084;50.956;3.106;2023-06-14T04:07:34;18.30;99.90
17918;DHT22;9084;50.956;3.106;2023-06-14T04:10:06;18.30;99.90
17918;DHT22;9084;50.956;3.106;2023-06-14T04:12:32;18.30;99.90
17918;DHT22;9084;50.956;3.106;2023-06-14T04:14:57;18.40;99.90
17918;DHT22;9084;50.956;3.106;2023-06-14T04:17:23;18.30;99.90
17918;DHT22;9084;50.956;3.106;2023-06-14T04:19:49;18.40;99.90
17918;DHT22;9084;50.956;3.106;2023-06-14T04:22:14;18.40;99.90
17918;DHT22;9084;50.956;3.106;2023-06-14T04:24:40;18.40;99.90
17918;DHT22;9084;50.956;3.106;2023-06-14T04:27:08;18.40;99.90
17918;DHT22;9084;50.956;3.106;2023-06-14T04:29:33;18.40;99.90
17918;DHT22;9084;50.956;3.106;2023-06-14T04:31:59;18.50;99.90
17918;DHT22;9084;50.956;3.106;2023-06-14T04:34:28;18.50;98.60
17918;DHT22;9084;50.956;3.106;2023-06-14T04:36:58;18.50;99.90
17918;DHT22;9084;50.956;3.106;2023-06-14T04:39:27;18.50;98.00
17918;DHT22;9084;50.956;3.106;2023-06-14T04:41:55;18.60;98.40
17918;DHT22;9084;50.956;3.106;2023-06-14T04:44:23;18.60;99.00
17918;DHT22;9084;50.956;3.106;2023-06-14T04:46:58;18.60;98.50
17918;DHT22;9084;50.956;3.106;2023-06-14T04:49:25;18.70;96.70
17918;DHT22;9084;50.956;3.106;2023-06-14T04:51:51;18.70;97.70
17918;DHT22;9084;50.956;3.106;2023-06-14T04:54:23;18.80;96.40
17918;DHT22;9084;50.956;3.106;2023-06-14T04:56:51;18.80;97.80
17918;DHT22;9084;50.956;3.106;2023-06-14T04:59:18;18.90;96.30
17918;DHT22;9084;50.956;3.106;2023-06-14T05:01:44;18.90;96.10
17918;DHT22;9084;50.956;3.106;2023-06-14T05:04:16;19.00;94.60
17918;DHT22;9084;50.956;3.106;2023-06-14T05:06:44;19.00;96.30
17918;DHT22;9084;50.956;3.106;2023-06-14T05:09:14;19.00;93.60
17918;DHT22;9084;50.956;3.106;2023-06-14T05:11:40;19.10;92.90
17918;DHT22;9084;50.956;3.106;2023-06-14T05:14:07;19.20;93.20
17918;DHT22;9084;50.956;3.106;2023-06-14T05:16:33;19.20;91.90
17918;DHT22;9084;50.956;3.106;2023-06-14T05:19:01;19.30;92.20
17918;DHT22;9084;50.956;3.106;2023-06-14T05:21:30;19.30;92.50
17918;DHT22;9084;50.956;3.106;2023-06-14T05:23:57;19.40;91.30
17918;DHT22;9084;50.956;3.106;2023-06-14T05:26:23;19.40;90.50
17918;DHT22;9084;50.956;3.106;2023-06-14T05:28:57;19.50;90.60
17918;DHT22;9084;50.956;3.106;2023-06-14T05:31:25;19.50;91.00
17918;DHT22;9084;50.956;3.106;2023-06-14T05:33:51;19.60;92.00
17918;DHT22;9084;50.956;3.106;2023-06-14T05:36:17;19.60;89.60
17918;DHT22;9084;50.956;3.106;2023-06-14T05:38:43;19.70;89.80
17918;DHT22;9084;50.956;3.106;2023-06-14T05:41:09;19.80;89.20
17918;DHT22;9084;50.956;3.106;2023-06-14T05:43:34;19.80;88.40
17918;DHT22;9084;50.956;3.106;2023-06-14T05:46:00;19.90;89.80
17918;DHT22;9084;50.956;3.106;2023-06-14T05:48:28;19.90;88.30
17918;DHT22;9084;50.956;3.106;2023-06-14T05:50:55;19.90;90.40
17918;DHT22;9084;50.956;3.106;2023-06-14T05:53:23;20.00;88.80
17918;DHT22;9084;50.956;3.106;2023-06-14T05:55:50;20.00;87.40
17918;DHT22;9084;50.956;3.106;2023-06-14T05:58:18;20.10;86.00
17918;DHT22;9084;50.956;3.106;2023-06-14T06:00:44;20.10;85.70
17918;DHT22;9084;50.956;3.106;2023-06-14T06:03:11;20.20;85.10
17918;DHT22;9084;50.956;3.106;2023-06-14T06:05:40;20.30;86.20
17918;DHT22;9084;50.956;3.106;2023-06-14T06:08:09;20.40;85.50
17918;DHT22;9084;50.956;3.106;2023-06-14T06:10:34;20.50;83.70
17918;DHT22;9084;50.956;3.106;2023-06-14T06:13:00;20.60;83.40
17918;DHT22;9084;50.956;3.106;2023-06-14T06:15:26;20.70;82.70
17918;DHT22;9084;50.956;3.106;2023-06-14T06:17:54;20.80;82.50
17918;DHT22;9084;50.956;3.106;2023-06-14T06:20:23;20.80;81.40
17918;DHT22;9084;50.956;3.106;2023-06-14T06:22:53;20.90;80.90
17918;DHT22;9084;50.956;3.106;2023-06-14T06:25:19;21.10;80.00
17918;DHT22;9084;50.956;3.106;2023-06-14T06:27:45;21.10;79.40
17918;DHT22;9084;50.956;3.106;2023-06-14T06:30:11;21.20;78.40
17918;DHT22;9084;50.956;3.106;2023-06-14T06:32:37;21.30;79.00
17918;DHT22;9084;50.956;3.106;2023-06-14T06:35:05;21.30;77.10
17918;DHT22;9084;50.956;3.106;2023-06-14T06:37:32;21.40;77.30
17918;DHT22;9084;50.956;3.106;2023-06-14T06:39:58;21.50;76.20
17918;DHT22;9084;50.956;3.106;2023-06-14T06:42:24;21.60;74.80
17918;DHT22;9084;50.956;3.106;2023-06-14T06:44:50;21.60;75.30
17918;DHT22;9084;50.956;3.106;2023-06-14T06:47:15;21.70;74.30
17918;DHT22;9084;50.956;3.106;2023-06-14T06:49:41;21.70;75.70
17918;DHT22;9084;50.956;3.106;2023-06-14T06:52:07;21.80;74.50
17918;DHT22;9084;50.956;3.106;2023-06-14T06:54:35;21.80;74.30
17918;DHT22;9084;50.956;3.106;2023-06-14T06:57:01;21.90;73.30
17918;DHT22;9084;50.956;3.106;2023-06-14T06:59:29;22.00;72.90
17918;DHT22;9084;50.956;3.106;2023-06-14T07:01:58;22.00;73.20
17918;DHT22;9084;50.956;3.106;2023-06-14T07:04:23;22.10;72.90
17918;DHT22;9084;50.956;3.106;2023-06-14T07:06:51;22.30;72.40
17918;DHT22;9084;50.956;3.106;2023-06-14T07:09:17;22.30;72.00
17918;DHT22;9084;50.956;3.106;2023-06-14T07:11:46;22.40;71.20
17918;DHT22;9084;50.956;3.106;2023-06-14T07:14:14;22.50;70.00
17918;DHT22;9084;50.956;3.106;2023-06-14T07:16:40;22.50;69.20
17918;DHT22;9084;50.956;3.106;2023-06-14T07:19:06;22.50;69.10
17918;DHT22;9084;50.956;3.106;2023-06-14T07:21:34;22.60;69.70
17918;DHT22;9084;50.956;3.106;2023-06-14T07:24:00;22.70;71.40
17918;DHT22;9084;50.956;3.106;2023-06-14T07:26:28;22.70;69.60
17918;DHT22;9084;50.956;3.106;2023-06-14T07:28:53;22.90;70.30
17918;DHT22;9084;50.956;3.106;2023-06-14T07:31:19;23.00;71.20
17918;DHT22;9084;50.956;3.106;2023-06-14T07:33:45;23.10;69.00
17918;DHT22;9084;50.956;3.106;2023-06-14T07:36:13;23.10;67.00
17918;DHT22;9084;50.956;3.106;2023-06-14T07:38:39;23.20;66.40
17918;DHT22;9084;50.956;3.106;2023-06-14T07:41:11;23.20;66.60
17918;DHT22;9084;50.956;3.106;2023-06-14T07:43:37;23.30;66.40
17918;DHT22;9084;50.956;3.106;2023-06-14T07:46:05;23.30;66.00
17918;DHT22;9084;50.956;3.106;2023-06-14T07:48:31;23.40;65.00
17918;DHT22;9084;50.956;3.106;2023-06-14T07:50:59;23.40;65.20
17918;DHT22;9084;50.956;3.106;2023-06-14T07:53:31;23.50;64.10
17918;DHT22;9084;50.956;3.106;2023-06-14T07:55:59;23.60;64.30
17918;DHT22;9084;50.956;3.106;2023-06-14T07:58:25;23.60;63.10
17918;DHT22;9084;50.956;3.106;2023-06-14T08:00:51;23.70;63.70
17918;DHT22;9084;50.956;3.106;2023-06-14T08:03:17;23.70;63.50
17918;DHT22;9084;50.956;3.106;2023-06-14T08:05:43;23.80;63.10
17918;DHT22;9084;50.956;3.106;2023-06-14T08:08:09;23.90;63.00
17918;DHT22;9084;50.956;3.106;2023-06-14T08:10:37;24.00;62.90
17918;DHT22;9084;50.956;3.106;2023-06-14T08:13:05;24.00;62.90
17918;DHT22;9084;50.956;3.106;2023-06-14T08:15:31;24.20;63.90
17918;DHT22;9084;50.956;3.106;2023-06-14T08:17:58;24.20;63.50
17918;DHT22;9084;50.956;3.106;2023-06-14T08:20:25;24.30;62.00
17918;DHT22;9084;50.956;3.106;2023-06-14T08:22:51;24.40;63.00
17918;DHT22;9084;50.956;3.106;2023-06-14T08:25:20;24.50;62.40
17918;DHT22;9084;50.956;3.106;2023-06-14T08:27:46;24.60;63.20
17918;DHT22;9084;50.956;3.106;2023-06-14T08:30:12;24.70;62.30
17918;DHT22;9084;50.956;3.106;2023-06-14T08:32:43;24.80;60.30
17918;DHT22;9084;50.956;3.106;2023-06-14T08:35:12;24.90;61.00
17918;DHT22;9084;50.956;3.106;2023-06-14T08:37:41;25.00;59.80
17918;DHT22;9084;50.956;3.106;2023-06-14T08:40:19;25.00;59.50
17918;DHT22;9084;50.956;3.106;2023-06-14T08:42:51;25.10;59.50
17918;DHT22;9084;50.956;3.106;2023-06-14T08:45:21;25.20;60.00
17918;DHT22;9084;50.956;3.106;2023-06-14T08:47:47;25.30;59.70
17918;DHT22;9084;50.956;3.106;2023-06-14T08:50:20;25.40;58.90
17918;DHT22;9084;50.956;3.106;2023-06-14T08:52:51;25.50;58.80
17918;DHT22;9084;50.956;3.106;2023-06-14T08:55:19;25.50;56.80
17918;DHT22;9084;50.956;3.106;2023-06-14T08:57:46;25.60;57.70
17918;DHT22;9084;50.956;3.106;2023-06-14T09:00:17;25.70;55.70
17918;DHT22;9084;50.956;3.106;2023-06-14T09:02:43;25.70;55.40
17918;DHT22;9084;50.956;3.106;2023-06-14T09:05:16;25.80;55.10
17918;DHT22;9084;50.956;3.106;2023-06-14T09:07:44;25.80;54.70
17918;DHT22;9084;50.956;3.106;2023-06-14T09:10:12;25.90;53.30
17918;DHT22;9084;50.956;3.106;2023-06-14T09:12:38;26.00;53.60
17918;DHT22;9084;50.956;3.106;2023-06-14T09:15:05;26.10;53.40
17918;DHT22;9084;50.956;3.106;2023-06-14T09:17:37;26.10;53.00
17918;DHT22;9084;50.956;3.106;2023-06-14T09:20:04;26.20;53.20
17918;DHT22;9084;50.956;3.106;2023-06-14T09:22:34;26.30;52.50
17918;DHT22;9084;50.956;3.106;2023-06-14T09:25:00;26.40;50.30
17918;DHT22;9084;50.956;3.106;2023-06-14T09:27:27;26.40;50.70
17918;DHT22;9084;50.956;3.106;2023-06-14T09:29:55;26.40;51.60
17918;DHT22;9084;50.956;3.106;2023-06-14T09:32:22;26.50;50.10
17918;DHT22;9084;50.956;3.106;2023-06-14T09:34:50;26.60;50.10
17918;DHT22;9084;50.956;3.106;2023-06-14T09:37:32;26.60;48.40
17918;DHT22;9084;50.956;3.106;2023-06-14T09:40:03;26.60;48.10
17918;DHT22;9084;50.956;3.106;2023-06-14T09:42:29;26.60;47.50
17918;DHT22;9084;50.956;3.106;2023-06-14T09:44:56;26.70;49.00
17918;DHT22;9084;50.956;3.106;2023-06-14T09:47:24;26.70;47.90
17918;DHT22;9084;50.956;3.106;2023-06-14T09:49:51;26.80;46.40
17918;DHT22;9084;50.956;3.106;2023-06-14T09:52:22;26.80;46.80
17918;DHT22;9084;50.956;3.106;2023-06-14T09:54:49;26.90;47.50
17918;DHT22;9084;50.956;3.106;2023-06-14T09:57:17;27.00;47.10
17918;DHT22;9084;50.956;3.106;2023-06-14T09:59:46;27.00;47.50
17918;DHT22;9084;50.956;3.106;2023-06-14T10:05:06;26.90;45.20
17918;DHT22;9084;50.956;3.106;2023-06-14T10:10:04;27.00;47.00
17918;DHT22;9084;50.956;3.106;2023-06-14T10:12:30;27.00;47.50
17918;DHT22;9084;50.956;3.106;2023-06-14T10:14:56;27.10;47.30
17918;DHT22;9084;50.956;3.106;2023-06-14T10:20:26;27.20;49.00
17918;DHT22;9084;50.956;3.106;2023-06-14T10:23:03;27.30;45.90
17918;DHT22;9084;50.956;3.106;2023-06-14T10:25:32;27.30;44.20
17918;DHT22;9084;50.956;3.106;2023-06-14T10:28:21;27.30;44.70
17918;DHT22;9084;50.956;3.106;2023-06-14T10:31:10;27.30;44.70
17918;DHT22;9084;50.956;3.106;2023-06-14T10:33:49;27.30;45.20
17918;DHT22;9084;50.956;3.106;2023-06-14T10:36:30;27.30;45.60
17918;DHT22;9084;50.956;3.106;2023-06-14T10:39:17;27.30;44.00
17918;DHT22;9084;50.956;3.106;2023-06-14T10:41:54;27.30;45.20
17918;DHT22;9084;50.956;3.106;2023-06-14T10:46:53;27.30;43.80
17918;DHT22;9084;50.956;3.106;2023-06-14T10:49:20;27.30;43.80
17918;DHT22;9084;50.956;3.106;2023-06-14T10:51:57;27.30;44.70
17918;DHT22;9084;50.956;3.106;2023-06-14T10:54:23;27.30;44.30
17918;DHT22;9084;50.956;3.106;2023-06-14T10:56:53;27.40;43.70
17918;DHT22;9084;50.956;3.106;2023-06-14T10:59:20;27.40;44.10
17918;DHT22;9084;50.956;3.106;2023-06-14T11:04:52;27.60;45.00
17918;DHT22;9084;50.956;3.106;2023-06-14T11:10:09;27.80;45.00
17918;DHT22;9084;50.956;3.106;2023-06-14T11:12:36;27.80;44.50
17918;DHT22;9084;50.956;3.106;2023-06-14T11:15:05;27.90;45.70
17918;DHT22;9084;50.956;3.106;2023-06-14T11:17:32;27.90;42.80
17918;DHT22;9084;50.956;3.106;2023-06-14T11:20:14;27.90;42.20
17918;DHT22;9084;50.956;3.106;2023-06-14T11:22:44;27.80;44.00
17918;DHT22;9084;50.956;3.106;2023-06-14T11:25:11;27.70;42.30
17918;DHT22;9084;50.956;3.106;2023-06-14T11:27:37;27.80;43.70
17918;DHT22;9084;50.956;3.106;2023-06-14T11:30:06;27.80;44.70
17918;DHT22;9084;50.956;3.106;2023-06-14T11:32:32;27.90;42.70
17918;DHT22;9084;50.956;3.106;2023-06-14T11:35:00;27.90;44.00
17918;DHT22;9084;50.956;3.106;2023-06-14T11:37:30;28.00;43.60
17918;DHT22;9084;50.956;3.106;2023-06-14T11:40:00;28.00;42.30
17918;DHT22;9084;50.956;3.106;2023-06-14T11:42:29;28.10;43.60
17918;DHT22;9084;50.956;3.106;2023-06-14T11:44:57;28.10;42.60
17918;DHT22;9084;50.956;3.106;2023-06-14T11:47:23;28.10;41.70
17918;DHT22;9084;50.956;3.106;2023-06-14T11:49:51;28.10;43.50
17918;DHT22;9084;50.956;3.106;2023-06-14T11:52:17;28.10;42.90
17918;DHT22;9084;50.956;3.106;2023-06-14T11:54:43;28.20;42.00
17918;DHT22;9084;50.956;3.106;2023-06-14T11:57:11;28.20;43.20
17918;DHT22;9084;50.956;3.106;2023-06-14T11:59:40;28.20;42.00
17918;DHT22;9084;50.956;3.106;2023-06-14T12:02:07;28.20;40.80
17918;DHT22;9084;50.956;3.106;2023-06-14T12:04:33;28.30;41.70
17918;DHT22;9084;50.956;3.106;2023-06-14T12:07:12;28.30;42.70
17918;DHT22;9084;50.956;3.106;2023-06-14T12:10:03;28.30;41.40
17918;DHT22;9084;50.956;3.106;2023-06-14T12:12:35;28.30;41.20
17918;DHT22;9084;50.956;3.106;2023-06-14T12:15:04;28.30;41.40
17918;DHT22;9084;50.956;3.106;2023-06-14T12:17:36;28.30;42.20
17918;DHT22;9084;50.956;3.106;2023-06-14T12:20:10;28.30;42.00
17918;DHT22;9084;50.956;3.106;2023-06-14T12:22:41;28.30;41.20
17918;DHT22;9084;50.956;3.106;2023-06-14T12:25:32;28.30;41.10
17918;DHT22;9084;50.956;3.106;2023-06-14T12:28:04;28.40;40.60
17918;DHT22;9084;50.956;3.106;2023-06-14T12:30:30;28.30;41.40
17918;DHT22;9084;50.956;3.106;2023-06-14T12:32:55;28.50;40.80
17918;DHT22;9084;50.956;3.106;2023-06-14T12:35:21;28.50;42.20
17918;DHT22;9084;50.956;3.106;2023-06-14T12:37:49;28.60;40.90
17918;DHT22;9084;50.956;3.106;2023-06-14T12:40:15;28.60;41.00
17918;DHT22;9084;50.956;3.106;2023-06-14T12:42:45;28.70;39.50
17918;DHT22;9084;50.956;3.106;2023-06-14T12:45:12;28.70;39.20
17918;DHT22;9084;50.956;3.106;2023-06-14T12:47:38;28.70;40.60
17918;DHT22;9084;50.956;3.106;2023-06-14T12:50:05;28.70;40.20
17918;DHT22;9084;50.956;3.106;2023-06-14T12:52:30;28.60;40.30
17918;DHT22;9084;50.956;3.106;2023-06-14T12:55:02;28.70;40.80
17918;DHT22;9084;50.956;3.106;2023-06-14T12:57:28;28.80;41.70
17918;DHT22;9084;50.956;3.106;2023-06-14T12:59:56;28.90;41.20
17918;DHT22;9084;50.956;3.106;2023-06-14T13:02:22;28.90;40.40
17918;DHT22;9084;50.956;3.106;2023-06-14T13:04:50;29.00;41.30
17918;DHT22;9084;50.956;3.106;2023-06-14T13:07:18;29.00;42.70
17918;DHT22;9084;50.956;3.106;2023-06-14T13:09:43;29.10;40.70
17918;DHT22;9084;50.956;3.106;2023-06-14T13:12:12;29.10;41.20
17918;DHT22;9084;50.956;3.106;2023-06-14T13:14:38;29.10;41.20
17918;DHT22;9084;50.956;3.106;2023-06-14T13:17:04;29.10;39.80
17918;DHT22;9084;50.956;3.106;2023-06-14T13:19:31;29.00;38.00
17918;DHT22;9084;50.956;3.106;2023-06-14T13:21:56;29.00;40.40
17918;DHT22;9084;50.956;3.106;2023-06-14T13:24:27;29.00;39.30
17918;DHT22;9084;50.956;3.106;2023-06-14T13:26:56;28.90;38.60
17918;DHT22;9084;50.956;3.106;2023-06-14T13:29:23;28.90;40.40
17918;DHT22;9084;50.956;3.106;2023-06-14T13:31:49;28.90;38.90
17918;DHT22;9084;50.956;3.106;2023-06-14T13:34:14;28.90;38.40
17918;DHT22;9084;50.956;3.106;2023-06-14T13:36:43;29.00;39.80
17918;DHT22;9084;50.956;3.106;2023-06-14T13:39:08;29.10;40.80
17918;DHT22;9084;50.956;3.106;2023-06-14T13:41:34;29.10;39.40
17918;DHT22;9084;50.956;3.106;2023-06-14T13:44:02;29.20;40.70
17918;DHT22;9084;50.956;3.106;2023-06-14T13:46:30;29.30;40.30
17918;DHT22;9084;50.956;3.106;2023-06-14T13:48:56;29.30;38.90
17918;DHT22;9084;50.956;3.106;2023-06-14T13:51:28;29.30;39.60
17918;DHT22;9084;50.956;3.106;2023-06-14T13:53:56;29.10;38.90
17918;DHT22;9084;50.956;3.106;2023-06-14T13:56:22;29.20;41.40
17918;DHT22;9084;50.956;3.106;2023-06-14T13:58:49;29.20;38.90
17918;DHT22;9084;50.956;3.106;2023-06-14T14:01:15;29.30;40.30
17918;DHT22;9084;50.956;3.106;2023-06-14T14:03:43;29.30;39.40
17918;DHT22;9084;50.956;3.106;2023-06-14T14:06:12;29.30;38.10
17918;DHT22;9084;50.956;3.106;2023-06-14T14:08:38;29.20;37.80
17918;DHT22;9084;50.956;3.106;2023-06-14T14:11:06;29.10;39.00
17918;DHT22;9084;50.956;3.106;2023-06-14T14:13:35;29.20;38.80
17918;DHT22;9084;50.956;3.106;2023-06-14T14:16:04;29.20;38.60
17918;DHT22;9084;50.956;3.106;2023-06-14T14:18:32;29.20;39.10
17918;DHT22;9084;50.956;3.106;2023-06-14T14:20:58;29.40;38.20
17918;DHT22;9084;50.956;3.106;2023-06-14T14:23:31;29.30;38.40
17918;DHT22;9084;50.956;3.106;2023-06-14T14:25:59;29.40;38.60
17918;DHT22;9084;50.956;3.106;2023-06-14T14:28:28;29.30;38.00
17918;DHT22;9084;50.956;3.106;2023-06-14T14:30:54;29.20;38.10
17918;DHT22;9084;50.956;3.106;2023-06-14T14:33:20;29.20;39.10
17918;DHT22;9084;50.956;3.106;2023-06-14T14:35:46;29.30;38.90
17918;DHT22;9084;50.956;3.106;2023-06-14T14:38:13;29.30;38.60
17918;DHT22;9084;50.956;3.106;2023-06-14T14:40:39;29.30;37.80
17918;DHT22;9084;50.956;3.106;2023-06-14T14:43:12;29.40;37.70
17918;DHT22;9084;50.956;3.106;2023-06-14T14:45:38;29.30;38.50
17918;DHT22;9084;50.956;3.106;2023-06-14T14:48:06;29.30;39.30
17918;DHT22;9084;50.956;3.106;2023-06-14T14:50:32;29.20;40.40
17918;DHT22;9084;50.956;3.106;2023-06-14T14:52:58;29.20;39.50
17918;DHT22;9084;50.956;3.106;2023-06-14T14:55:26;29.20;39.90
17918;DHT22;9084;50.956;3.106;2023-06-14T14:57:54;29.30;40.30
17918;DHT22;9084;50.956;3.106;2023-06-14T15:00:20;29.30;40.40
17918;DHT22;9084;50.956;3.106;2023-06-14T15:02:46;29.20;41.40
17918;DHT22;9084;50.956;3.106;2023-06-14T15:05:11;29.10;40.90
17918;DHT22;9084;50.956;3.106;2023-06-14T15:07:39;29.10;42.00
17918;DHT22;9084;50.956;3.106;2023-06-14T15:10:07;29.20;41.90
17918;DHT22;9084;50.956;3.106;2023-06-14T15:12:34;29.10;41.00
17918;DHT22;9084;50.956;3.106;2023-06-14T15:15:00;29.10;41.90
17918;DHT22;9084;50.956;3.106;2023-06-14T15:17:26;29.10;41.40
17918;DHT22;9084;50.956;3.106;2023-06-14T15:19:52;29.20;43.40
17918;DHT22;9084;50.956;3.106;2023-06-14T15:22:18;29.20;42.50
17918;DHT22;9084;50.956;3.106;2023-06-14T15:24:48;29.30;41.50
17918;DHT22;9084;50.956;3.106;2023-06-14T15:27:16;29.30;44.10
17918;DHT22;9084;50.956;3.106;2023-06-14T15:29:42;29.30;42.70
17918;DHT22;9084;50.956;3.106;2023-06-14T15:32:09;29.40;42.70
17918;DHT22;9084;50.956;3.106;2023-06-14T15:34:34;29.40;43.90
17918;DHT22;9084;50.956;3.106;2023-06-14T15:37:00;29.50;41.80
17918;DHT22;9084;50.956;3.106;2023-06-14T15:39:29;29.40;41.70
17918;DHT22;9084;50.956;3.106;2023-06-14T15:41:57;29.40;41.70
17918;DHT22;9084;50.956;3.106;2023-06-14T15:44:23;29.50;40.30
17918;DHT22;9084;50.956;3.106;2023-06-14T15:46:48;29.40;43.60
17918;DHT22;9084;50.956;3.106;2023-06-14T15:49:16;29.50;45.00
17918;DHT22;9084;50.956;3.106;2023-06-14T15:51:45;29.50;45.90
17918;DHT22;9084;50.956;3.106;2023-06-14T15:54:11;29.50;40.90
17918;DHT22;9084;50.956;3.106;2023-06-14T15:56:39;29.60;40.40
17918;DHT22;9084;50.956;3.106;2023-06-14T15:59:05;29.60;39.50
17918;DHT22;9084;50.956;3.106;2023-06-14T16:01:32;29.60;40.30
17918;DHT22;9084;50.956;3.106;2023-06-14T16:03:58;29.50;40.10
17918;DHT22;9084;50.956;3.106;2023-06-14T16:06:26;29.30;38.80
17918;DHT22;9084;50.956;3.106;2023-06-14T16:08:51;29.20;40.90
17918;DHT22;9084;50.956;3.106;2023-06-14T16:11:19;29.20;40.10